sensor_id;sensor_type;location;lat;lon;timestamp;P1;durP1;ratioP1;P2;durP2;ratioP2
76063;SDS011;64762;52.006;8.424;2023-08-31T00:01:38;16.50;;;8.20;;
76063;SDS011;64762;52.006;8.424;2023-08-31T00:04:03;13.95;;;7.43;;
76063;SDS011;64762;52.006;8.424;2023-08-31T00:06:30;19.48;;;7.95;;
76063;SDS011;64762;52.006;8.424;2023-08-31T00:08:55;15.73;;;8.18;;
76063;SDS011;64762;52.006;8.424;2023-08-31T00:11:20;16.23;;;8.63;;
76063;SDS011;64762;52.006;8.424;2023-08-31T00:13:46;16.52;;;7.75;;
76063;SDS011;64762;52.006;8.424;2023-08-31T00:16:11;13.03;;;7.47;;
76063;SDS011;64762;52.006;8.424;2023-08-31T00:18:37;16.65;;;7.22;;
76063;SDS011;64762;52.006;8.424;2023-08-31T00:21:03;20.67;;;8.48;;
76063;SDS011;64762;52.006;8.424;2023-08-31T00:23:29;14.98;;;7.13;;
76063;SDS011;64762;52.006;8.424;2023-08-31T00:25:54;16.83;;;7.67;;
76063;SDS011;64762;52.006;8.424;2023-08-31T00:28:22;18.33;;;7.60;;
76063;SDS011;64762;52.006;8.424;2023-08-31T00:30:50;14.20;;;6.60;;
76063;SDS011;64762;52.006;8.424;2023-08-31T00:33:16;15.40;;;7.55;;
76063;SDS011;64762;52.006;8.424;2023-08-31T00:35:42;16.70;;;6.60;;
76063;SDS011;64762;52.006;8.424;2023-08-31T00:38:10;13.10;;;6.45;;
76063;SDS011;64762;52.006;8.424;2023-08-31T00:40:39;16.40;;;7.67;;
76063;SDS011;64762;52.006;8.424;2023-08-31T00:43:09;14.38;;;6.70;;
76063;SDS011;64762;52.006;8.424;2023-08-31T00:45:34;19.07;;;7.03;;
76063;SDS011;64762;52.006;8.424;2023-08-31T00:48:00;17.10;;;6.45;;
76063;SDS011;64762;52.006;8.424;2023-08-31T00:50:25;13.13;;;6.60;;
76063;SDS011;64762;52.006;8.424;2023-08-31T00:52:51;15.02;;;5.93;;
76063;SDS011;64762;52.006;8.424;2023-08-31T00:55:17;16.45;;;6.57;;
76063;SDS011;64762;52.006;8.424;2023-08-31T00:57:43;12.27;;;5.60;;
76063;SDS011;64762;52.006;8.424;2023-08-31T01:00:08;12.82;;;5.75;;
76063;SDS011;64762;52.006;8.424;2023-08-31T01:02:56;12.82;;;5.60;;
76063;SDS011;64762;52.006;8.424;2023-08-31T01:08:19;28.90;;;6.95;;
76063;SDS011;64762;52.006;8.424;2023-08-31T01:14:00;13.85;;;5.90;;
76063;SDS011;64762;52.006;8.424;2023-08-31T01:16:30;15.13;;;5.30;;
76063;SDS011;64762;52.006;8.424;2023-08-31T01:18:58;14.35;;;5.63;;
76063;SDS011;64762;52.006;8.424;2023-08-31T01:21:27;12.00;;;5.88;;
76063;SDS011;64762;52.006;8.424;2023-08-31T01:23:55;11.18;;;5.68;;
76063;SDS011;64762;52.006;8.424;2023-08-31T01:26:22;13.20;;;5.70;;
76063;SDS011;64762;52.006;8.424;2023-08-31T01:28:48;14.05;;;5.43;;
76063;SDS011;64762;52.006;8.424;2023-08-31T01:31:14;19.33;;;5.82;;
76063;SDS011;64762;52.006;8.424;2023-08-31T01:33:40;20.48;;;5.95;;
76063;SDS011;64762;52.006;8.424;2023-08-31T01:36:07;14.40;;;5.93;;
76063;SDS011;64762;52.006;8.424;2023-08-31T01:38:48;13.55;;;5.70;;
76063;SDS011;64762;52.006;8.424;2023-08-31T01:41:16;13.35;;;5.85;;
76063;SDS011;64762;52.006;8.424;2023-08-31T01:43:43;13.70;;;6.28;;
76063;SDS011;64762;52.006;8.424;2023-08-31T01:46:08;15.23;;;6.13;;
76063;SDS011;64762;52.006;8.424;2023-08-31T01:48:41;12.20;;;5.55;;
76063;SDS011;64762;52.006;8.424;2023-08-31T01:51:09;13.18;;;5.38;;
76063;SDS011;64762;52.006;8.424;2023-08-31T01:53:35;12.32;;;6.20;;
76063;SDS011;64762;52.006;8.424;2023-08-31T01:56:00;12.83;;;5.57;;
76063;SDS011;64762;52.006;8.424;2023-08-31T01:58:26;13.50;;;6.05;;
76063;SDS011;64762;52.006;8.424;2023-08-31T02:00:51;21.43;;;7.30;;
76063;SDS011;64762;52.006;8.424;2023-08-31T02:03:16;14.10;;;6.20;;
76063;SDS011;64762;52.006;8.424;2023-08-31T02:05:42;16.13;;;6.90;;
76063;SDS011;64762;52.006;8.424;2023-08-31T02:08:07;15.83;;;6.70;;
76063;SDS011;64762;52.006;8.424;2023-08-31T02:10:32;15.87;;;6.70;;
76063;SDS011;64762;52.006;8.424;2023-08-31T02:12:57;16.63;;;7.50;;
76063;SDS011;64762;52.006;8.424;2023-08-31T02:15:23;20.03;;;7.90;;
76063;SDS011;64762;52.006;8.424;2023-08-31T02:17:48;17.60;;;7.93;;
76063;SDS011;64762;52.006;8.424;2023-08-31T02:20:13;15.17;;;7.30;;
76063;SDS011;64762;52.006;8.424;2023-08-31T02:22:39;19.80;;;7.85;;
76063;SDS011;64762;52.006;8.424;2023-08-31T02:25:04;20.23;;;8.00;;
76063;SDS011;64762;52.006;8.424;2023-08-31T02:27:30;16.40;;;8.02;;
76063;SDS011;64762;52.006;8.424;2023-08-31T02:29:55;20.55;;;8.95;;
76063;SDS011;64762;52.006;8.424;2023-08-31T02:32:21;23.87;;;9.07;;
76063;SDS011;64762;52.006;8.424;2023-08-31T02:34:46;18.43;;;9.60;;
76063;SDS011;64762;52.006;8.424;2023-08-31T02:37:11;18.60;;;8.93;;
76063;SDS011;64762;52.006;8.424;2023-08-31T02:39:37;19.67;;;10.37;;
76063;SDS011;64762;52.006;8.424;2023-08-31T02:42:02;21.70;;;9.70;;
76063;SDS011;64762;52.006;8.424;2023-08-31T02:44:27;20.27;;;9.45;;
76063;SDS011;64762;52.006;8.424;2023-08-31T02:46:53;22.40;;;9.70;;
76063;SDS011;64762;52.006;8.424;2023-08-31T02:49:18;21.40;;;9.73;;
76063;SDS011;64762;52.006;8.424;2023-08-31T02:51:43;18.83;;;9.30;;
76063;SDS011;64762;52.006;8.424;2023-08-31T02:54:09;25.13;;;11.03;;
76063;SDS011;64762;52.006;8.424;2023-08-31T02:56:34;24.17;;;9.67;;
76063;SDS011;64762;52.006;8.424;2023-08-31T02:58:59;20.67;;;10.07;;
76063;SDS011;64762;52.006;8.424;2023-08-31T03:01:25;22.17;;;9.93;;
76063;SDS011;64762;52.006;8.424;2023-08-31T03:03:50;18.83;;;10.13;;
76063;SDS011;64762;52.006;8.424;2023-08-31T03:06:16;20.23;;;10.33;;
76063;SDS011;64762;52.006;8.424;2023-08-31T03:08:42;22.95;;;10.50;;
76063;SDS011;64762;52.006;8.424;2023-08-31T03:11:07;22.07;;;9.93;;
76063;SDS011;64762;52.006;8.424;2023-08-31T03:13:32;19.40;;;9.37;;
76063;SDS011;64762;52.006;8.424;2023-08-31T03:15:58;22.65;;;9.90;;
76063;SDS011;64762;52.006;8.424;2023-08-31T03:18:24;21.70;;;9.13;;
76063;SDS011;64762;52.006;8.424;2023-08-31T03:20:49;20.70;;;9.90;;
76063;SDS011;64762;52.006;8.424;2023-08-31T03:23:15;19.17;;;9.45;;
76063;SDS011;64762;52.006;8.424;2023-08-31T03:25:40;18.80;;;8.90;;
76063;SDS011;64762;52.006;8.424;2023-08-31T03:28:06;19.55;;;10.10;;
76063;SDS011;64762;52.006;8.424;2023-08-31T03:30:31;20.00;;;9.67;;
76063;SDS011;64762;52.006;8.424;2023-08-31T03:32:57;19.07;;;9.87;;
76063;SDS011;64762;52.006;8.424;2023-08-31T03:35:22;17.60;;;8.93;;
76063;SDS011;64762;52.006;8.424;2023-08-31T03:37:52;23.25;;;10.57;;
76063;SDS011;64762;52.006;8.424;2023-08-31T03:40:18;19.05;;;9.65;;
76063;SDS011;64762;52.006;8.424;2023-08-31T03:42:43;20.37;;;9.93;;
76063;SDS011;64762;52.006;8.424;2023-08-31T03:45:08;22.63;;;10.30;;
76063;SDS011;64762;52.006;8.424;2023-08-31T03:47:34;19.90;;;9.27;;
76063;SDS011;64762;52.006;8.424;2023-08-31T03:49:59;21.17;;;9.77;;
76063;SDS011;64762;52.006;8.424;2023-08-31T03:52:24;19.97;;;10.47;;
76063;SDS011;64762;52.006;8.424;2023-08-31T03:54:50;23.70;;;10.10;;
76063;SDS011;64762;52.006;8.424;2023-08-31T03:57:16;18.10;;;9.50;;
76063;SDS011;64762;52.006;8.424;2023-08-31T03:59:41;18.67;;;9.43;;
76063;SDS011;64762;52.006;8.424;2023-08-31T04:02:07;20.77;;;10.30;;
76063;SDS011;64762;52.006;8.424;2023-08-31T04:04:32;23.27;;;10.13;;
76063;SDS011;64762;52.006;8.424;2023-08-31T04:06:58;19.20;;;9.60;;
76063;SDS011;64762;52.006;8.424;2023-08-31T04:09:24;23.50;;;9.90;;
76063;SDS011;64762;52.006;8.424;2023-08-31T04:11:49;19.07;;;10.63;;
76063;SDS011;64762;52.006;8.424;2023-08-31T04:14:14;21.30;;;10.20;;
76063;SDS011;64762;52.006;8.424;2023-08-31T04:16:40;18.93;;;10.23;;
76063;SDS011;64762;52.006;8.424;2023-08-31T04:19:05;18.27;;;10.83;;
76063;SDS011;64762;52.006;8.424;2023-08-31T04:21:30;23.80;;;9.93;;
76063;SDS011;64762;52.006;8.424;2023-08-31T04:23:56;18.87;;;8.90;;
76063;SDS011;64762;52.006;8.424;2023-08-31T04:26:21;19.73;;;9.67;;
76063;SDS011;64762;52.006;8.424;2023-08-31T04:28:46;22.00;;;9.50;;
76063;SDS011;64762;52.006;8.424;2023-08-31T04:31:12;20.47;;;9.37;;
76063;SDS011;64762;52.006;8.424;2023-08-31T04:33:37;22.40;;;9.93;;
76063;SDS011;64762;52.006;8.424;2023-08-31T04:36:04;21.42;;;9.77;;
76063;SDS011;64762;52.006;8.424;2023-08-31T04:38:30;20.20;;;9.70;;
76063;SDS011;64762;52.006;8.424;2023-08-31T04:40:58;20.75;;;10.27;;
76063;SDS011;64762;52.006;8.424;2023-08-31T04:43:26;16.95;;;8.43;;
76063;SDS011;64762;52.006;8.424;2023-08-31T04:45:52;21.40;;;9.50;;
76063;SDS011;64762;52.006;8.424;2023-08-31T04:48:18;18.95;;;9.40;;
76063;SDS011;64762;52.006;8.424;2023-08-31T04:50:43;23.70;;;10.00;;
76063;SDS011;64762;52.006;8.424;2023-08-31T04:53:08;19.23;;;8.80;;
76063;SDS011;64762;52.006;8.424;2023-08-31T04:55:34;18.53;;;9.03;;
76063;SDS011;64762;52.006;8.424;2023-08-31T04:57:59;19.40;;;8.87;;
76063;SDS011;64762;52.006;8.424;2023-08-31T05:00:24;20.67;;;10.33;;
76063;SDS011;64762;52.006;8.424;2023-08-31T05:02:50;16.70;;;9.43;;
76063;SDS011;64762;52.006;8.424;2023-08-31T05:05:15;19.67;;;9.35;;
76063;SDS011;64762;52.006;8.424;2023-08-31T05:07:43;21.83;;;9.63;;
76063;SDS011;64762;52.006;8.424;2023-08-31T05:10:08;21.05;;;9.43;;
76063;SDS011;64762;52.006;8.424;2023-08-31T05:12:34;20.90;;;9.52;;
76063;SDS011;64762;52.006;8.424;2023-08-31T05:14:59;18.80;;;9.13;;
76063;SDS011;64762;52.006;8.424;2023-08-31T05:17:24;17.98;;;9.70;;
76063;SDS011;64762;52.006;8.424;2023-08-31T05:19:50;17.77;;;10.07;;
76063;SDS011;64762;52.006;8.424;2023-08-31T05:22:15;18.70;;;10.10;;
76063;SDS011;64762;52.006;8.424;2023-08-31T05:24:40;18.67;;;9.70;;
76063;SDS011;64762;52.006;8.424;2023-08-31T05:27:06;22.48;;;10.05;;
76063;SDS011;64762;52.006;8.424;2023-08-31T05:29:31;25.80;;;10.68;;
76063;SDS011;64762;52.006;8.424;2023-08-31T05:31:57;21.43;;;11.13;;
76063;SDS011;64762;52.006;8.424;2023-08-31T05:34:22;21.63;;;9.87;;
76063;SDS011;64762;52.006;8.424;2023-08-31T05:36:50;23.67;;;10.35;;
76063;SDS011;64762;52.006;8.424;2023-08-31T05:39:15;22.47;;;11.07;;
76063;SDS011;64762;52.006;8.424;2023-08-31T05:41:41;22.85;;;10.32;;
76063;SDS011;64762;52.006;8.424;2023-08-31T05:44:07;21.60;;;11.73;;
76063;SDS011;64762;52.006;8.424;2023-08-31T05:46:33;29.48;;;12.02;;
76063;SDS011;64762;52.006;8.424;2023-08-31T05:48:59;23.92;;;11.55;;
76063;SDS011;64762;52.006;8.424;2023-08-31T05:51:24;25.83;;;12.13;;
76063;SDS011;64762;52.006;8.424;2023-08-31T05:53:50;23.73;;;11.30;;
76063;SDS011;64762;52.006;8.424;2023-08-31T05:56:16;24.63;;;11.73;;
76063;SDS011;64762;52.006;8.424;2023-08-31T05:58:41;25.43;;;12.23;;
76063;SDS011;64762;52.006;8.424;2023-08-31T06:01:07;24.93;;;12.37;;
76063;SDS011;64762;52.006;8.424;2023-08-31T06:03:32;24.23;;;11.23;;
76063;SDS011;64762;52.006;8.424;2023-08-31T06:05:58;29.45;;;11.98;;
76063;SDS011;64762;52.006;8.424;2023-08-31T06:08:24;24.70;;;11.55;;
76063;SDS011;64762;52.006;8.424;2023-08-31T06:10:49;25.77;;;11.93;;
76063;SDS011;64762;52.006;8.424;2023-08-31T06:13:15;26.35;;;12.05;;
76063;SDS011;64762;52.006;8.424;2023-08-31T06:15:40;26.03;;;12.70;;
76063;SDS011;64762;52.006;8.424;2023-08-31T06:18:06;27.97;;;11.27;;
76063;SDS011;64762;52.006;8.424;2023-08-31T06:20:31;27.20;;;11.13;;
76063;SDS011;64762;52.006;8.424;2023-08-31T06:22:57;26.50;;;10.80;;
76063;SDS011;64762;52.006;8.424;2023-08-31T06:25:22;21.73;;;11.23;;
76063;SDS011;64762;52.006;8.424;2023-08-31T06:27:47;25.40;;;11.23;;
76063;SDS011;64762;52.006;8.424;2023-08-31T06:30:13;26.63;;;11.38;;
76063;SDS011;64762;52.006;8.424;2023-08-31T06:32:44;25.33;;;12.07;;
76063;SDS011;64762;52.006;8.424;2023-08-31T06:35:10;24.13;;;11.25;;
76063;SDS011;64762;52.006;8.424;2023-08-31T06:37:37;23.42;;;10.98;;
76063;SDS011;64762;52.006;8.424;2023-08-31T06:40:02;23.98;;;10.48;;
76063;SDS011;64762;52.006;8.424;2023-08-31T06:42:28;23.52;;;10.32;;
76063;SDS011;64762;52.006;8.424;2023-08-31T06:44:53;22.53;;;10.50;;
76063;SDS011;64762;52.006;8.424;2023-08-31T06:47:21;24.85;;;10.82;;
76063;SDS011;64762;52.006;8.424;2023-08-31T06:49:47;29.15;;;12.60;;
76063;SDS011;64762;52.006;8.424;2023-08-31T06:52:12;26.57;;;10.47;;
76063;SDS011;64762;52.006;8.424;2023-08-31T06:54:37;25.77;;;10.70;;
76063;SDS011;64762;52.006;8.424;2023-08-31T06:57:03;20.37;;;11.67;;
76063;SDS011;64762;52.006;8.424;2023-08-31T06:59:29;25.65;;;11.38;;
76063;SDS011;64762;52.006;8.424;2023-08-31T07:01:54;26.25;;;12.70;;
76063;SDS011;64762;52.006;8.424;2023-08-31T07:04:19;30.90;;;13.00;;
76063;SDS011;64762;52.006;8.424;2023-08-31T07:06:45;27.90;;;11.57;;
76063;SDS011;64762;52.006;8.424;2023-08-31T07:09:10;22.90;;;11.17;;
76063;SDS011;64762;52.006;8.424;2023-08-31T07:11:35;26.17;;;11.60;;
76063;SDS011;64762;52.006;8.424;2023-08-31T07:14:00;25.00;;;11.73;;
76063;SDS011;64762;52.006;8.424;2023-08-31T07:16:29;21.17;;;11.00;;
76063;SDS011;64762;52.006;8.424;2023-08-31T07:18:54;25.90;;;11.52;;
76063;SDS011;64762;52.006;8.424;2023-08-31T07:21:19;22.27;;;11.33;;
76063;SDS011;64762;52.006;8.424;2023-08-31T07:23:45;24.23;;;12.07;;
76063;SDS011;64762;52.006;8.424;2023-08-31T07:26:10;30.40;;;11.27;;
76063;SDS011;64762;52.006;8.424;2023-08-31T07:28:37;26.77;;;11.93;;
76063;SDS011;64762;52.006;8.424;2023-08-31T07:31:06;23.38;;;10.75;;
76063;SDS011;64762;52.006;8.424;2023-08-31T07:33:32;31.90;;;11.68;;
76063;SDS011;64762;52.006;8.424;2023-08-31T07:35:58;29.73;;;11.88;;
76063;SDS011;64762;52.006;8.424;2023-08-31T07:38:23;25.13;;;12.13;;
76063;SDS011;64762;52.006;8.424;2023-08-31T07:40:49;28.30;;;12.65;;
76063;SDS011;64762;52.006;8.424;2023-08-31T07:43:14;26.80;;;11.93;;
76063;SDS011;64762;52.006;8.424;2023-08-31T07:45:39;23.33;;;12.73;;
76063;SDS011;64762;52.006;8.424;2023-08-31T07:48:05;26.53;;;11.40;;
76063;SDS011;64762;52.006;8.424;2023-08-31T07:50:32;28.58;;;12.48;;
76063;SDS011;64762;52.006;8.424;2023-08-31T07:52:57;26.88;;;13.40;;
76063;SDS011;64762;52.006;8.424;2023-08-31T07:55:23;27.40;;;12.00;;
76063;SDS011;64762;52.006;8.424;2023-08-31T07:57:48;27.03;;;13.13;;
76063;SDS011;64762;52.006;8.424;2023-08-31T08:00:13;30.23;;;14.37;;
76063;SDS011;64762;52.006;8.424;2023-08-31T08:02:40;27.92;;;15.18;;
76063;SDS011;64762;52.006;8.424;2023-08-31T08:05:05;27.45;;;14.63;;
76063;SDS011;64762;52.006;8.424;2023-08-31T08:07:31;26.92;;;13.93;;
76063;SDS011;64762;52.006;8.424;2023-08-31T08:09:56;29.17;;;13.73;;
76063;SDS011;64762;52.006;8.424;2023-08-31T08:12:21;27.60;;;14.23;;
76063;SDS011;64762;52.006;8.424;2023-08-31T08:14:47;30.40;;;14.70;;
76063;SDS011;64762;52.006;8.424;2023-08-31T08:17:12;28.60;;;14.80;;
76063;SDS011;64762;52.006;8.424;2023-08-31T08:19:37;23.67;;;12.63;;
76063;SDS011;64762;52.006;8.424;2023-08-31T08:22:03;27.63;;;14.67;;
76063;SDS011;64762;52.006;8.424;2023-08-31T08:24:28;32.35;;;14.90;;
76063;SDS011;64762;52.006;8.424;2023-08-31T08:26:54;33.80;;;15.30;;
76063;SDS011;64762;52.006;8.424;2023-08-31T08:29:19;27.87;;;13.97;;
76063;SDS011;64762;52.006;8.424;2023-08-31T08:31:44;30.50;;;15.00;;
76063;SDS011;64762;52.006;8.424;2023-08-31T08:34:10;28.03;;;14.17;;
76063;SDS011;64762;52.006;8.424;2023-08-31T08:36:35;28.90;;;13.88;;
76063;SDS011;64762;52.006;8.424;2023-08-31T08:39:00;32.37;;;15.57;;
76063;SDS011;64762;52.006;8.424;2023-08-31T08:41:26;27.63;;;14.90;;
76063;SDS011;64762;52.006;8.424;2023-08-31T08:43:53;35.22;;;15.07;;
76063;SDS011;64762;52.006;8.424;2023-08-31T08:46:20;28.75;;;14.63;;
76063;SDS011;64762;52.006;8.424;2023-08-31T08:48:46;29.35;;;14.35;;
76063;SDS011;64762;52.006;8.424;2023-08-31T08:51:12;27.20;;;14.73;;
76063;SDS011;64762;52.006;8.424;2023-08-31T08:53:38;23.70;;;13.40;;
76063;SDS011;64762;52.006;8.424;2023-08-31T08:56:06;23.02;;;13.27;;
76063;SDS011;64762;52.006;8.424;2023-08-31T08:58:31;28.43;;;12.40;;
76063;SDS011;64762;52.006;8.424;2023-08-31T09:00:57;26.37;;;12.00;;
76063;SDS011;64762;52.006;8.424;2023-08-31T09:03:23;26.63;;;13.50;;
76063;SDS011;64762;52.006;8.424;2023-08-31T09:05:50;24.00;;;12.32;;
76063;SDS011;64762;52.006;8.424;2023-08-31T09:08:17;26.17;;;11.52;;
76063;SDS011;64762;52.006;8.424;2023-08-31T09:10:43;26.15;;;12.60;;
76063;SDS011;64762;52.006;8.424;2023-08-31T09:13:10;23.42;;;11.65;;
76063;SDS011;64762;52.006;8.424;2023-08-31T09:15:47;21.70;;;12.50;;
76063;SDS011;64762;52.006;8.424;2023-08-31T09:18:13;21.02;;;10.73;;
76063;SDS011;64762;52.006;8.424;2023-08-31T09:20:49;16.63;;;9.32;;
76063;SDS011;64762;52.006;8.424;2023-08-31T09:23:15;15.90;;;8.93;;
76063;SDS011;64762;52.006;8.424;2023-08-31T09:25:50;16.83;;;9.68;;
76063;SDS011;64762;52.006;8.424;2023-08-31T09:28:19;18.15;;;8.18;;
76063;SDS011;64762;52.006;8.424;2023-08-31T09:30:46;18.50;;;9.90;;
76063;SDS011;64762;52.006;8.424;2023-08-31T09:33:14;15.15;;;8.25;;
76063;SDS011;64762;52.006;8.424;2023-08-31T09:35:49;18.17;;;8.43;;
76063;SDS011;64762;52.006;8.424;2023-08-31T09:38:16;18.40;;;8.57;;
76063;SDS011;64762;52.006;8.424;2023-08-31T09:40:41;12.77;;;7.28;;
76063;SDS011;64762;52.006;8.424;2023-08-31T09:43:07;18.47;;;7.63;;
76063;SDS011;64762;52.006;8.424;2023-08-31T09:45:32;12.93;;;7.13;;
76063;SDS011;64762;52.006;8.424;2023-08-31T09:47:59;13.63;;;7.50;;
76063;SDS011;64762;52.006;8.424;2023-08-31T09:50:25;11.98;;;6.50;;
76063;SDS011;64762;52.006;8.424;2023-08-31T09:52:53;12.93;;;7.22;;
76063;SDS011;64762;52.006;8.424;2023-08-31T09:55:20;12.90;;;6.93;;
76063;SDS011;64762;52.006;8.424;2023-08-31T09:57:47;10.80;;;5.88;;
76063;SDS011;64762;52.006;8.424;2023-08-31T10:00:13;17.13;;;7.18;;
76063;SDS011;64762;52.006;8.424;2023-08-31T10:02:40;13.50;;;5.68;;
76063;SDS011;64762;52.006;8.424;2023-08-31T10:05:07;9.20;;;5.60;;
76063;SDS011;64762;52.006;8.424;2023-08-31T10:07:33;8.18;;;4.68;;
76063;SDS011;64762;52.006;8.424;2023-08-31T10:09:58;11.77;;;4.93;;
76063;SDS011;64762;52.006;8.424;2023-08-31T10:12:25;9.05;;;4.50;;
76063;SDS011;64762;52.006;8.424;2023-08-31T10:14:52;11.90;;;4.50;;
76063;SDS011;64762;52.006;8.424;2023-08-31T10:17:18;9.20;;;3.70;;
76063;SDS011;64762;52.006;8.424;2023-08-31T10:19:45;8.80;;;3.47;;
76063;SDS011;64762;52.006;8.424;2023-08-31T10:22:10;6.67;;;3.47;;
76063;SDS011;64762;52.006;8.424;2023-08-31T10:25:09;7.80;;;2.90;;
76063;SDS011;64762;52.006;8.424;2023-08-31T10:27:41;5.72;;;2.95;;
76063;SDS011;64762;52.006;8.424;2023-08-31T10:30:25;6.80;;;3.17;;
76063;SDS011;64762;52.006;8.424;2023-08-31T10:35:41;7.80;;;4.28;;
76063;SDS011;64762;52.006;8.424;2023-08-31T10:38:15;6.68;;;3.75;;
76063;SDS011;64762;52.006;8.424;2023-08-31T10:46:37;5.65;;;2.53;;
76063;SDS011;64762;52.006;8.424;2023-08-31T10:51:36;4.28;;;2.40;;
76063;SDS011;64762;52.006;8.424;2023-08-31T10:54:09;5.97;;;2.90;;
76063;SDS011;64762;52.006;8.424;2023-08-31T11:05:02;3.92;;;1.67;;
76063;SDS011;64762;52.006;8.424;2023-08-31T11:07:31;5.65;;;1.80;;
76063;SDS011;64762;52.006;8.424;2023-08-31T11:10:09;4.00;;;1.40;;
76063;SDS011;64762;52.006;8.424;2023-08-31T11:12:43;4.47;;;1.48;;
76063;SDS011;64762;52.006;8.424;2023-08-31T11:15:12;5.43;;;1.95;;
76063;SDS011;64762;52.006;8.424;2023-08-31T11:17:39;4.93;;;1.70;;
76063;SDS011;64762;52.006;8.424;2023-08-31T11:20:05;5.00;;;1.70;;
76063;SDS011;64762;52.006;8.424;2023-08-31T11:22:34;4.55;;;1.88;;
76063;SDS011;64762;52.006;8.424;2023-08-31T11:24:59;5.10;;;1.65;;
76063;SDS011;64762;52.006;8.424;2023-08-31T11:27:24;4.53;;;1.50;;
76063;SDS011;64762;52.006;8.424;2023-08-31T11:29:50;5.70;;;1.73;;
76063;SDS011;64762;52.006;8.424;2023-08-31T11:32:15;2.63;;;1.10;;
76063;SDS011;64762;52.006;8.424;2023-08-31T11:34:41;4.57;;;1.50;;
76063;SDS011;64762;52.006;8.424;2023-08-31T11:37:07;3.45;;;1.23;;
76063;SDS011;64762;52.006;8.424;2023-08-31T11:39:33;5.22;;;1.50;;
76063;SDS011;64762;52.006;8.424;2023-08-31T11:41:59;4.47;;;1.80;;
76063;SDS011;64762;52.006;8.424;2023-08-31T11:44:24;6.57;;;2.10;;
76063;SDS011;64762;52.006;8.424;2023-08-31T11:46:50;6.57;;;1.92;;
76063;SDS011;64762;52.006;8.424;2023-08-31T11:49:19;5.65;;;1.85;;
76063;SDS011;64762;52.006;8.424;2023-08-31T11:51:44;3.20;;;1.52;;
76063;SDS011;64762;52.006;8.424;2023-08-31T11:54:10;5.00;;;1.67;;
76063;SDS011;64762;52.006;8.424;2023-08-31T11:56:42;4.03;;;1.58;;
76063;SDS011;64762;52.006;8.424;2023-08-31T11:59:11;5.32;;;1.50;;
76063;SDS011;64762;52.006;8.424;2023-08-31T12:01:39;7.22;;;1.42;;
76063;SDS011;64762;52.006;8.424;2023-08-31T12:04:16;5.82;;;2.30;;
76063;SDS011;64762;52.006;8.424;2023-08-31T12:06:45;3.95;;;1.45;;
76063;SDS011;64762;52.006;8.424;2023-08-31T12:09:13;4.32;;;1.50;;
76063;SDS011;64762;52.006;8.424;2023-08-31T12:11:40;2.90;;;1.25;;
76063;SDS011;64762;52.006;8.424;2023-08-31T12:14:17;2.83;;;1.30;;
76063;SDS011;64762;52.006;8.424;2023-08-31T12:16:44;6.22;;;1.13;;
76063;SDS011;64762;52.006;8.424;2023-08-31T12:19:09;2.17;;;0.80;;
76063;SDS011;64762;52.006;8.424;2023-08-31T12:21:34;7.77;;;1.20;;
76063;SDS011;64762;52.006;8.424;2023-08-31T12:24:00;3.63;;;1.40;;
76063;SDS011;64762;52.006;8.424;2023-08-31T12:26:25;3.63;;;1.63;;
76063;SDS011;64762;52.006;8.424;2023-08-31T12:28:51;5.03;;;1.17;;
76063;SDS011;64762;52.006;8.424;2023-08-31T12:31:17;3.75;;;1.15;;
76063;SDS011;64762;52.006;8.424;2023-08-31T12:33:42;6.97;;;1.30;;
76063;SDS011;64762;52.006;8.424;2023-08-31T12:36:08;4.13;;;1.20;;
76063;SDS011;64762;52.006;8.424;2023-08-31T12:38:33;4.55;;;1.20;;
76063;SDS011;64762;52.006;8.424;2023-08-31T12:40:58;5.67;;;1.20;;
76063;SDS011;64762;52.006;8.424;2023-08-31T12:43:24;4.20;;;0.90;;
76063;SDS011;64762;52.006;8.424;2023-08-31T12:45:49;5.45;;;1.10;;
76063;SDS011;64762;52.006;8.424;2023-08-31T12:48:16;8.00;;;1.65;;
76063;SDS011;64762;52.006;8.424;2023-08-31T12:50:41;5.82;;;1.95;;
76063;SDS011;64762;52.006;8.424;2023-08-31T12:53:06;5.23;;;1.70;;
76063;SDS011;64762;52.006;8.424;2023-08-31T12:55:32;4.00;;;1.10;;
76063;SDS011;64762;52.006;8.424;2023-08-31T12:57:57;5.70;;;1.52;;
76063;SDS011;64762;52.006;8.424;2023-08-31T13:00:23;3.53;;;1.03;;
76063;SDS011;64762;52.006;8.424;2023-08-31T13:02:49;3.72;;;1.10;;
76063;SDS011;64762;52.006;8.424;2023-08-31T13:05:16;4.35;;;1.40;;
76063;SDS011;64762;52.006;8.424;2023-08-31T13:07:41;4.20;;;1.00;;
76063;SDS011;64762;52.006;8.424;2023-08-31T13:10:06;8.23;;;2.03;;
76063;SDS011;64762;52.006;8.424;2023-08-31T13:12:32;10.02;;;1.67;;
76063;SDS011;64762;52.006;8.424;2023-08-31T13:14:58;5.32;;;1.30;;
76063;SDS011;64762;52.006;8.424;2023-08-31T13:17:23;2.53;;;1.00;;
76063;SDS011;64762;52.006;8.424;2023-08-31T13:19:52;4.35;;;1.20;;
76063;SDS011;64762;52.006;8.424;2023-08-31T13:22:18;4.07;;;1.20;;
76063;SDS011;64762;52.006;8.424;2023-08-31T13:24:43;2.97;;;1.00;;
76063;SDS011;64762;52.006;8.424;2023-08-31T13:27:08;3.13;;;1.10;;
76063;SDS011;64762;52.006;8.424;2023-08-31T13:29:35;6.05;;;1.30;;
76063;SDS011;64762;52.006;8.424;2023-08-31T13:32:00;5.35;;;1.20;;
76063;SDS011;64762;52.006;8.424;2023-08-31T13:34:26;3.45;;;0.93;;
76063;SDS011;64762;52.006;8.424;2023-08-31T13:36:51;4.80;;;1.20;;
76063;SDS011;64762;52.006;8.424;2023-08-31T13:39:16;3.80;;;1.10;;
76063;SDS011;64762;52.006;8.424;2023-08-31T13:41:42;5.30;;;1.20;;
76063;SDS011;64762;52.006;8.424;2023-08-31T13:44:07;4.70;;;1.27;;
76063;SDS011;64762;52.006;8.424;2023-08-31T13:46:32;8.50;;;1.10;;
76063;SDS011;64762;52.006;8.424;2023-08-31T13:48:58;2.77;;;0.97;;
76063;SDS011;64762;52.006;8.424;2023-08-31T13:51:23;3.23;;;1.00;;
76063;SDS011;64762;52.006;8.424;2023-08-31T13:53:48;6.67;;;1.03;;
76063;SDS011;64762;52.006;8.424;2023-08-31T13:56:13;3.53;;;1.00;;
76063;SDS011;64762;52.006;8.424;2023-08-31T13:58:39;4.87;;;1.30;;
76063;SDS011;64762;52.006;8.424;2023-08-31T14:01:05;5.83;;;1.70;;
76063;SDS011;64762;52.006;8.424;2023-08-31T14:03:30;3.03;;;1.25;;
76063;SDS011;64762;52.006;8.424;2023-08-31T14:05:55;3.53;;;1.33;;
76063;SDS011;64762;52.006;8.424;2023-08-31T14:08:20;2.70;;;1.23;;
76063;SDS011;64762;52.006;8.424;2023-08-31T14:10:46;5.00;;;1.30;;
76063;SDS011;64762;52.006;8.424;2023-08-31T14:13:11;2.80;;;1.20;;
76063;SDS011;64762;52.006;8.424;2023-08-31T14:15:37;3.40;;;1.30;;
76063;SDS011;64762;52.006;8.424;2023-08-31T14:18:09;3.47;;;1.00;;
76063;SDS011;64762;52.006;8.424;2023-08-31T14:20:34;5.90;;;1.00;;
76063;SDS011;64762;52.006;8.424;2023-08-31T14:22:59;3.30;;;0.90;;
76063;SDS011;64762;52.006;8.424;2023-08-31T14:25:25;1.53;;;0.70;;
76063;SDS011;64762;52.006;8.424;2023-08-31T14:27:50;3.55;;;1.00;;
76063;SDS011;64762;52.006;8.424;2023-08-31T14:30:16;6.13;;;1.00;;
76063;SDS011;64762;52.006;8.424;2023-08-31T14:32:41;4.20;;;1.00;;
76063;SDS011;64762;52.006;8.424;2023-08-31T14:35:06;2.80;;;1.00;;
76063;SDS011;64762;52.006;8.424;2023-08-31T14:37:32;3.70;;;1.27;;
76063;SDS011;64762;52.006;8.424;2023-08-31T14:39:57;2.75;;;0.95;;
76063;SDS011;64762;52.006;8.424;2023-08-31T14:42:23;3.30;;;1.38;;
76063;SDS011;64762;52.006;8.424;2023-08-31T14:44:48;2.87;;;0.93;;
76063;SDS011;64762;52.006;8.424;2023-08-31T14:47:14;3.80;;;0.90;;
76063;SDS011;64762;52.006;8.424;2023-08-31T14:49:39;5.45;;;1.50;;
76063;SDS011;64762;52.006;8.424;2023-08-31T14:52:08;3.75;;;1.33;;
76063;SDS011;64762;52.006;8.424;2023-08-31T14:54:33;5.38;;;1.23;;